Terminal Aerodrome Forecast
Issued by NWS

Home | Current Version | Previous Version | Text Only | Print | Product List | Glossary On
Versions: 1 2 3 4 5 6 7 8 9 10 11 12 13 14
971
FTUS44 KMAF 202320
TAFINK
TAF
KINK 202320Z 2100/2124 24009KT P6SM SCT200
     FM211300 26015G25KT P6SM SKC
     FM211700 26030G40KT 3SM BLDU SKC=

USA.gov is the U.S. government's official web portal to all federal, state and local government web resources and services.